createdAt,value
2023-02-27T00:00:22.381Z,98468.63
2023-02-27T00:02:51.231Z,98466.19
2023-02-27T00:05:19.069Z,98463.53
2023-02-27T00:07:46.256Z,98472.41
2023-02-27T00:10:14.142Z,98478.34
2023-02-27T00:12:41.688Z,98463.34
2023-02-27T00:15:09.568Z,98482.13
2023-02-27T00:17:36.606Z,98494.78
2023-02-27T00:20:05.128Z,98494.97
2023-02-27T00:22:32.262Z,98492.16
2023-02-27T00:24:59.462Z,98490.13
2023-02-27T00:27:26.528Z,98486.06
2023-02-27T00:29:54.469Z,98506.13
2023-02-27T00:32:21.636Z,98521.72
2023-02-27T00:34:48.894Z,98536.22
2023-02-27T00:37:16.490Z,98519.09
2023-02-27T00:39:45.896Z,98520.22
2023-02-27T00:42:13.341Z,98516.47
2023-02-27T00:44:40.991Z,98526.03
2023-02-27T00:47:08.233Z,98529.63
2023-02-27T00:49:35.151Z,98534.06
2023-02-27T00:52:02.172Z,98540.50
2023-02-27T00:54:29.410Z,98537.38
2023-02-27T00:56:56.569Z,98548.41
2023-02-27T00:59:23.619Z,98550.38
2023-02-27T01:01:52.847Z,98548.53
2023-02-27T01:04:19.813Z,98539.50
2023-02-27T01:06:46.827Z,98538.00
2023-02-27T01:09:13.825Z,98548.53
2023-02-27T01:11:40.850Z,98566.78
2023-02-27T01:14:07.786Z,98560.69
2023-02-27T01:16:34.886Z,98566.28
2023-02-27T01:19:01.917Z,98565.47
2023-02-27T01:21:29.157Z,98568.25
2023-02-27T01:23:56.310Z,98560.13
2023-02-27T01:26:23.256Z,98566.25
2023-02-27T01:28:50.343Z,98589.44
2023-02-27T01:31:17.625Z,98580.22
2023-02-27T01:33:44.579Z,98580.03
2023-02-27T01:36:11.551Z,98583.66
2023-02-27T01:38:38.538Z,98590.06
2023-02-27T01:41:07.433Z,98606.53
2023-02-27T01:43:34.892Z,98601.72
2023-02-27T01:46:02.085Z,98601.88
2023-02-27T01:48:37.911Z,98611.56
2023-02-27T01:51:12.684Z,98619.16
2023-02-27T01:53:40.987Z,98622.41
2023-02-27T01:56:11.806Z,98627.66
2023-02-27T01:58:39.422Z,98634.44
2023-02-27T02:01:07.485Z,98643.31
2023-02-27T02:03:43.174Z,98651.66
2023-02-27T02:06:10.346Z,98644.44
2023-02-27T02:08:40.911Z,98658.09
2023-02-27T02:11:09.243Z,98657.88
2023-02-27T02:13:37.358Z,98676.16
2023-02-27T02:16:42.455Z,98665.31
2023-02-27T02:19:09.294Z,98683.38
2023-02-27T02:21:51.623Z,98692.53
2023-02-27T02:24:26.778Z,98690.00
2023-02-27T02:26:59.359Z,98694.72
2023-02-27T02:30:05.074Z,98694.72
2023-02-27T02:32:44.267Z,98712.16
2023-02-27T02:35:22.817Z,98713.00
2023-02-27T02:37:59.693Z,98702.47
2023-02-27T02:40:36.707Z,98712.31
2023-02-27T02:43:15.008Z,98717.72
2023-02-27T02:45:48.039Z,98722.44
2023-02-27T02:48:21.721Z,98735.59
2023-02-27T02:51:02.096Z,98716.69
2023-02-27T02:53:50.565Z,98722.31
2023-02-27T02:56:29.901Z,98730.66
2023-02-27T02:59:05.988Z,98742.31
2023-02-27T03:01:39.217Z,98738.84
2023-02-27T03:04:28.104Z,98751.84
2023-02-27T03:07:00.535Z,98757.84
2023-02-27T03:09:51.139Z,98752.81
2023-02-27T03:12:21.290Z,98757.84
2023-02-27T03:14:56.535Z,98749.25
2023-02-27T03:18:00.263Z,98765.03
2023-02-27T03:20:41.176Z,98767.41
2023-02-27T03:23:18.588Z,98781.22
2023-02-27T03:25:46.618Z,98778.75
2023-02-27T03:28:25.873Z,98783.31
2023-02-27T03:31:02.427Z,98787.22
2023-02-27T03:33:36.454Z,98798.97
2023-02-27T03:36:09.563Z,98790.53
2023-02-27T03:38:55.366Z,98810.69
2023-02-27T03:41:36.173Z,98804.75
2023-02-27T03:44:31.576Z,98808.94
2023-02-27T03:46:59.450Z,98822.50
2023-02-27T03:49:26.444Z,98827.50
2023-02-27T03:51:53.673Z,98848.78
2023-02-27T03:54:30.119Z,98832.06
2023-02-27T03:57:05.968Z,98849.81
2023-02-27T03:59:33.999Z,98852.28
2023-02-27T04:02:02.718Z,98847.56
2023-02-27T04:04:35.803Z,98854.94
2023-02-27T04:07:30.011Z,98860.03
2023-02-27T04:10:31.031Z,98856.88
2023-02-27T04:13:09.369Z,98862.81
2023-02-27T04:16:06.902Z,98870.97
2023-02-27T04:18:57.792Z,98867.53
2023-02-27T04:21:30.657Z,98867.53
2023-02-27T04:24:09.863Z,98875.41
2023-02-27T04:26:41.617Z,98864.06
2023-02-27T04:29:14.416Z,98876.53
2023-02-27T04:31:54.412Z,98877.34
2023-02-27T04:34:32.597Z,98875.41
2023-02-27T04:37:25.297Z,98895.88
2023-02-27T04:39:58.025Z,98891.56
2023-02-27T04:42:29.516Z,98890.75
2023-02-27T04:45:00.846Z,98897.28
2023-02-27T04:47:32.033Z,98907.53
2023-02-27T04:50:02.707Z,98920.38
2023-02-27T04:52:35.875Z,98925.22
2023-02-27T04:55:05.930Z,98936.25
2023-02-27T04:57:44.562Z,98917.16
2023-02-27T05:00:14.043Z,98931.72
2023-02-27T05:02:52.467Z,98932.25
2023-02-27T05:05:24.296Z,98923.25
2023-02-27T05:08:05.835Z,98936.38
2023-02-27T05:10:47.301Z,98935.72
2023-02-27T05:13:23.410Z,98944.28
2023-02-27T05:15:54.231Z,98959.13
2023-02-27T05:18:22.151Z,98953.69
2023-02-27T05:21:07.746Z,98963.25
2023-02-27T05:24:02.254Z,98960.63
2023-02-27T05:26:58.219Z,98962.44
2023-02-27T05:30:27.084Z,98963.38
2023-02-27T05:32:56.726Z,98959.13
2023-02-27T05:35:37.789Z,98976.53
2023-02-27T05:38:16.475Z,98980.00
2023-02-27T05:40:55.611Z,98989.56
2023-02-27T05:43:29.284Z,98973.63
2023-02-27T05:46:07.522Z,98997.03
2023-02-27T05:48:38.894Z,98991.59
2023-02-27T05:51:07.292Z,99003.50
2023-02-27T05:53:38.265Z,98997.44
2023-02-27T05:56:06.967Z,99004.34
2023-02-27T05:58:41.655Z,99013.34
2023-02-27T06:01:10.876Z,99024.97
2023-02-27T06:03:39.419Z,99021.66
2023-02-27T06:06:09.026Z,99022.34
2023-02-27T06:08:36.023Z,99027.91
2023-02-27T06:11:03.051Z,99018.19
2023-02-27T06:13:30.044Z,99024.69
2023-02-27T06:15:57.048Z,98993.50
2023-02-27T06:18:24.112Z,99030.66
2023-02-27T06:20:51.279Z,99037.00
2023-02-27T06:23:18.596Z,99036.31
2023-02-27T06:25:48.452Z,99045.88
2023-02-27T06:28:15.594Z,99050.84
2023-02-27T06:30:43.916Z,99059.16
2023-02-27T06:33:12.556Z,99050.66
2023-02-27T06:35:40.511Z,99042.22
2023-02-27T06:38:07.564Z,99056.31
2023-02-27T06:40:34.482Z,99059.34
2023-02-27T06:43:01.512Z,99055.75
2023-02-27T06:45:28.534Z,99067.94
2023-02-27T06:47:55.491Z,99074.03
2023-02-27T06:50:22.673Z,99066.81
2023-02-27T06:52:49.814Z,99056.16
2023-02-27T06:55:21.482Z,99081.22
2023-02-27T06:57:49.288Z,99071.25
2023-02-27T07:00:17.528Z,99071.56
2023-02-27T07:02:44.502Z,99073.50
2023-02-27T07:05:14.311Z,99081.09
2023-02-27T07:07:41.576Z,99083.16
2023-02-27T07:10:12.068Z,99082.72
2023-02-27T07:12:40.687Z,99075.88
2023-02-27T07:15:09.109Z,99074.75
2023-02-27T07:17:36.251Z,99087.44
2023-02-27T07:20:04.241Z,99089.78
2023-02-27T07:22:32.113Z,99093.00
2023-02-27T07:24:59.266Z,99080.00
2023-02-27T07:27:26.398Z,99094.09
2023-02-27T07:29:54.180Z,99089.50
2023-02-27T07:32:21.330Z,99097.47
2023-02-27T07:34:48.357Z,99103.81
2023-02-27T07:37:15.337Z,99105.94
2023-02-27T07:39:42.385Z,99115.72
2023-02-27T07:42:09.363Z,99116.19
2023-02-27T07:44:37.240Z,99113.97
2023-02-27T07:47:04.641Z,99104.03
2023-02-27T07:49:31.601Z,99110.34
2023-02-27T07:51:58.639Z,99105.00
2023-02-27T07:54:29.061Z,99136.97
2023-02-27T07:56:57.984Z,99131.19
2023-02-27T07:59:27.231Z,99135.09
2023-02-27T08:01:54.329Z,99136.81
2023-02-27T08:04:21.750Z,99140.97
2023-02-27T08:06:49.309Z,99148.94
2023-02-27T08:09:16.527Z,99148.50
2023-02-27T08:11:44.051Z,99150.59
2023-02-27T08:14:11.010Z,99151.59
2023-02-27T08:16:38.124Z,99159.19
2023-02-27T08:19:05.127Z,99146.41
2023-02-27T08:21:32.571Z,99149.88
2023-02-27T08:23:59.516Z,99171.34
2023-02-27T08:26:26.820Z,99169.09
2023-02-27T08:28:54.210Z,99185.53
2023-02-27T08:31:21.197Z,99168.94
2023-02-27T08:33:53.100Z,99160.41
2023-02-27T08:36:25.141Z,99177.69
2023-02-27T08:38:52.525Z,99177.00
2023-02-27T08:41:19.491Z,99174.28
2023-02-27T08:43:46.485Z,99167.59
2023-02-27T08:46:13.625Z,99172.72
2023-02-27T08:48:42.775Z,99175.13
2023-02-27T08:51:10.045Z,99181.31
2023-02-27T08:53:37.088Z,99193.91
2023-02-27T08:56:04.275Z,99172.84
2023-02-27T08:58:31.408Z,99197.06
2023-02-27T09:00:58.329Z,99200.47
2023-02-27T09:03:28.824Z,99212.34
2023-02-27T09:05:56.459Z,99205.66
2023-02-27T09:08:23.760Z,99209.41
2023-02-27T09:10:50.686Z,99212.22
2023-02-27T09:13:17.637Z,99224.03
2023-02-27T09:15:47.576Z,99220.06
2023-02-27T09:18:14.568Z,99233.25
2023-02-27T09:20:41.782Z,99231.72
2023-02-27T09:23:09.833Z,99240.25
2023-02-27T09:25:36.899Z,99254.19
2023-02-27T09:28:04.207Z,99246.13
2023-02-27T09:30:31.218Z,99254.19
2023-02-27T09:32:59.194Z,99257.94
2023-02-27T09:35:26.585Z,99253.09
2023-02-27T09:37:53.543Z,99243.41
2023-02-27T09:40:24.901Z,99251.41
2023-02-27T09:42:53.966Z,99246.53
2023-02-27T09:45:26.801Z,99259.72
2023-02-27T09:48:12.899Z,99259.63
2023-02-27T09:50:43.051Z,99268.91
2023-02-27T09:53:16.629Z,99269.59
2023-02-27T09:55:44.189Z,99258.97
2023-02-27T09:58:31.324Z,99273.22
2023-02-27T10:01:06.436Z,99266.44
2023-02-27T10:03:45.463Z,99277.41
2023-02-27T10:06:28.393Z,99263.00
2023-02-27T10:09:18.653Z,99273.22
2023-02-27T10:11:54.799Z,99266.97
2023-02-27T10:14:37.942Z,99266.53
2023-02-27T10:17:12.606Z,99274.25
2023-02-27T10:19:41.427Z,99278.88
2023-02-27T10:22:15.721Z,99268.00
2023-02-27T10:24:52.233Z,99265.47
2023-02-27T10:27:22.405Z,99274.66
2023-02-27T10:29:58.050Z,99287.16
2023-02-27T10:32:32.549Z,99280.56
2023-02-27T10:35:18.658Z,99282.50
2023-02-27T10:37:58.988Z,99291.84
2023-02-27T10:40:31.747Z,99280.84
2023-02-27T10:43:04.691Z,99281.59
2023-02-27T10:45:34.041Z,99314.22
2023-02-27T10:48:05.175Z,99309.94
2023-02-27T10:50:35.385Z,99294.47
2023-02-27T10:53:06.376Z,99304.47
2023-02-27T10:55:36.908Z,99308.97
2023-02-27T10:58:05.452Z,99322.28
2023-02-27T11:00:46.484Z,99312.75
2023-02-27T11:03:20.899Z,99304.47
2023-02-27T11:05:57.512Z,99326.69
2023-02-27T11:08:27.204Z,99321.69
2023-02-27T11:11:04.852Z,99324.94
2023-02-27T11:13:35.282Z,99338.38
2023-02-27T11:16:08.744Z,99333.69
2023-02-27T11:18:38.004Z,99339.81
2023-02-27T11:21:28.186Z,99331.06
2023-02-27T11:24:21.780Z,99334.47
2023-02-27T11:27:06.902Z,99340.81
2023-02-27T11:29:35.120Z,99337.38
2023-02-27T11:32:11.965Z,99342.28
2023-02-27T11:34:47.810Z,99348.78
2023-02-27T11:37:36.931Z,99345.09
2023-02-27T11:40:10.550Z,99347.34
2023-02-27T11:42:45.133Z,99352.38
2023-02-27T11:46:04.429Z,99351.78
2023-02-27T11:48:21.592Z,99349.59
2023-02-27T11:51:00.495Z,99352.84
2023-02-27T11:53:35.649Z,99367.63
2023-02-27T11:56:04.487Z,99360.72
2023-02-27T11:58:38.806Z,99370.41
2023-02-27T12:01:08.884Z,99369.84
2023-02-27T12:04:08.353Z,99378.47
2023-02-27T12:06:44.228Z,99360.78
2023-02-27T12:09:59.207Z,99388.78
2023-02-27T12:12:37.919Z,99378.81
2023-02-27T12:15:35.152Z,99389.75
2023-02-27T12:18:12.779Z,99385.31
2023-02-27T12:21:11.887Z,99398.09
2023-02-27T12:24:08.506Z,99409.34
2023-02-27T12:26:41.096Z,99410.19
2023-02-27T12:29:32.679Z,99413.22
2023-02-27T12:32:17.887Z,99407.22
2023-02-27T12:34:48.671Z,99413.13
2023-02-27T12:37:26.877Z,99414.09
2023-02-27T12:39:59.133Z,99420.38
2023-02-27T12:43:03.059Z,99417.03
2023-02-27T12:45:54.305Z,99425.41
2023-02-27T12:48:24.074Z,99427.09
2023-02-27T12:51:23.177Z,99431.97
2023-02-27T12:54:07.350Z,99433.25
2023-02-27T12:56:58.835Z,99443.66
2023-02-27T12:59:40.635Z,99435.19
2023-02-27T13:02:23.447Z,99450.44
2023-02-27T13:05:20.782Z,99445.84
2023-02-27T13:08:12.657Z,99446.72
2023-02-27T13:10:45.969Z,99462.38
2023-02-27T13:13:24.476Z,99461.53
2023-02-27T13:16:02.638Z,99459.19
2023-02-27T13:18:49.718Z,99459.47
2023-02-27T13:21:29.371Z,99468.50
2023-02-27T13:24:15.100Z,99469.03
2023-02-27T13:26:56.236Z,99470.84
2023-02-27T13:29:24.717Z,99463.63
2023-02-27T13:32:17.707Z,99478.06
2023-02-27T13:34:50.873Z,99475.97
2023-02-27T13:37:18.087Z,99461.81
2023-02-27T13:39:48.931Z,99473.47
2023-02-27T13:42:27.871Z,99482.06
2023-02-27T13:44:59.616Z,99482.47
2023-02-27T13:47:30.596Z,99482.34
2023-02-27T13:49:58.566Z,99495.34
2023-02-27T13:52:33.686Z,99497.84
2023-02-27T13:55:11.361Z,99493.97
2023-02-27T13:57:39.894Z,99486.88
2023-02-27T14:00:18.917Z,99498.13
2023-02-27T14:03:02.473Z,99500.22
2023-02-27T14:05:38.476Z,99508.66
2023-02-27T14:08:14.322Z,99508.66
2023-02-27T14:11:14.324Z,99508.66
2023-02-27T14:13:50.881Z,99521.53
2023-02-27T14:16:40.720Z,99520.28
2023-02-27T14:19:22.790Z,99517.47
2023-02-27T14:22:03.044Z,99525.91
2023-02-27T14:25:01.520Z,99528.28
2023-02-27T14:27:44.830Z,99540.19
2023-02-27T14:30:31.156Z,99533.28
2023-02-27T14:33:08.315Z,99534.91
2023-02-27T14:35:39.668Z,99546.53
2023-02-27T14:38:11.396Z,99543.91
2023-02-27T14:40:49.739Z,99552.78
2023-02-27T14:43:31.365Z,99550.41
2023-02-27T14:46:07.290Z,99557.06
2023-02-27T14:48:37.755Z,99573.94
2023-02-27T14:51:05.206Z,99570.63
2023-02-27T14:53:33.181Z,99574.81
2023-02-27T14:56:01.577Z,99565.22
2023-02-27T14:58:29.130Z,99566.75
2023-02-27T15:00:58.317Z,99569.53
2023-02-27T15:03:29.861Z,99571.31
2023-02-27T15:06:01.219Z,99580.75
2023-02-27T15:08:34.796Z,99588.66
2023-02-27T15:11:02.568Z,99587.97
2023-02-27T15:13:34.984Z,99590.84
2023-02-27T15:16:23.799Z,99599.47
2023-02-27T15:18:54.454Z,99596.97
2023-02-27T15:21:23.552Z,99598.06
2023-02-27T15:23:59.636Z,99600.81
2023-02-27T15:26:27.638Z,99601.09
2023-02-27T15:28:54.899Z,99604.66
2023-02-27T15:31:27.314Z,99609.25
2023-02-27T15:33:56.438Z,99609.09
2023-02-27T15:36:30.966Z,99604.94
2023-02-27T15:39:07.998Z,99625.06
2023-02-27T15:41:35.383Z,99618.59
2023-02-27T15:44:03.436Z,99603.44
2023-02-27T15:46:30.695Z,99614.75
2023-02-27T15:48:58.219Z,99622.50
2023-02-27T15:51:26.722Z,99621.09
2023-02-27T15:53:59.042Z,99630.78
2023-02-27T15:56:31.700Z,99638.00
2023-02-27T15:59:01.091Z,99634.34
2023-02-27T16:01:31.283Z,99632.69
2023-02-27T16:04:04.814Z,99644.03
2023-02-27T16:06:38.310Z,99633.19
2023-02-27T16:09:08.546Z,99636.22
2023-02-27T16:11:37.696Z,99668.69
2023-02-27T16:14:06.159Z,99654.38
2023-02-27T16:16:36.351Z,99667.00
2023-02-27T16:19:31.121Z,99671.91
2023-02-27T16:22:14.707Z,99682.50
2023-02-27T16:24:42.131Z,99699.69
2023-02-27T16:27:25.337Z,99704.84
2023-02-27T16:29:57.586Z,99705.78
2023-02-27T16:32:27.490Z,99698.97
2023-02-27T16:35:09.088Z,99703.03
2023-02-27T16:37:41.304Z,99712.13
2023-02-27T16:40:20.715Z,99711.69
2023-02-27T16:42:48.709Z,99705.34
2023-02-27T16:45:22.080Z,99700.78
2023-02-27T16:47:50.810Z,99709.66
2023-02-27T16:50:23.719Z,99720.91
2023-02-27T16:52:51.414Z,99719.94
2023-02-27T16:55:18.495Z,99717.41
2023-02-27T16:57:45.721Z,99711.13
2023-02-27T17:00:17.871Z,99717.09
2023-02-27T17:02:46.888Z,99725.94
2023-02-27T17:05:15.335Z,99724.38
2023-02-27T17:07:42.721Z,99737.38
2023-02-27T17:10:15.185Z,99720.44
2023-02-27T17:12:44.130Z,99734.88
2023-02-27T17:15:11.531Z,99739.56
2023-02-27T17:17:38.545Z,99750.81
2023-02-27T17:20:08.998Z,99739.06
2023-02-27T17:22:41.857Z,99741.56
2023-02-27T17:25:09.797Z,99747.91
2023-02-27T17:27:37.048Z,99747.34
2023-02-27T17:30:05.113Z,99741.50
2023-02-27T17:32:32.248Z,99768.81
2023-02-27T17:34:59.993Z,99749.47
2023-02-27T17:37:27.326Z,99744.94
2023-02-27T17:39:55.106Z,99753.41
2023-02-27T17:42:26.011Z,99758.22
2023-02-27T17:44:53.192Z,99759.44
2023-02-27T17:47:20.557Z,99772.44
2023-02-27T17:49:47.922Z,99754.44
2023-02-27T17:52:15.294Z,99759.34
2023-02-27T17:54:45.816Z,99777.66
2023-02-27T17:57:13.975Z,99775.13
2023-02-27T17:59:43.450Z,99772.13
2023-02-27T18:02:12.631Z,99763.91
2023-02-27T18:04:40.075Z,99778.00
2023-02-27T18:07:08.013Z,99768.44
2023-02-27T18:09:35.084Z,99768.91
2023-02-27T18:12:02.310Z,99783.75
2023-02-27T18:14:29.320Z,99775.50
2023-02-27T18:16:58.316Z,99768.91
2023-02-27T18:19:27.001Z,99770.13
2023-02-27T18:21:54.316Z,99776.84
2023-02-27T18:24:21.642Z,99750.59
2023-02-27T18:26:49.437Z,99769.47
2023-02-27T18:29:18.017Z,99751.06
2023-02-27T18:31:46.340Z,99761.94
2023-02-27T18:34:13.435Z,99766.97
2023-02-27T18:36:40.557Z,99759.19
2023-02-27T18:39:11.454Z,99762.31
2023-02-27T18:41:38.792Z,99748.44
2023-02-27T18:44:07.075Z,99754.41
2023-02-27T18:46:35.040Z,99771.34
2023-02-27T18:49:02.070Z,99757.63
2023-02-27T18:51:29.210Z,99751.66
2023-02-27T18:53:56.634Z,99761.03
2023-02-27T18:56:25.660Z,99745.88
2023-02-27T18:58:53.796Z,99736.19
2023-02-27T19:01:32.345Z,99758.41
2023-02-27T19:04:03.557Z,99758.84
2023-02-27T19:06:35.671Z,99755.31
2023-02-27T19:09:07.305Z,99742.41
2023-02-27T19:11:35.690Z,99759.66
2023-02-27T19:14:04.710Z,99754.63
2023-02-27T19:16:32.521Z,99770.28
2023-02-27T19:19:01.484Z,99770.72
2023-02-27T19:21:29.325Z,99781.34
2023-02-27T19:23:56.460Z,99774.63
2023-02-27T19:26:24.818Z,99776.28
2023-02-27T19:28:54.086Z,99782.81
2023-02-27T19:31:25.077Z,99777.19
2023-02-27T19:33:52.302Z,99777.03
2023-02-27T19:36:21.095Z,99783.94
2023-02-27T19:38:49.385Z,99784.25
2023-02-27T19:41:43.123Z,99790.44
2023-02-27T19:44:10.951Z,99789.22
2023-02-27T19:46:42.513Z,99800.97
2023-02-27T19:49:11.868Z,99785.25
2023-02-27T19:51:41.103Z,99797.28
2023-02-27T19:54:08.145Z,99789.00
2023-02-27T19:56:35.091Z,99788.63
2023-02-27T19:59:02.083Z,99780.88
2023-02-27T20:01:31.758Z,99778.56
2023-02-27T20:04:00.107Z,99774.06
2023-02-27T20:06:29.680Z,99770.19
2023-02-27T20:08:59.972Z,99763.09
2023-02-27T20:11:31.497Z,99772.53
2023-02-27T20:14:00.028Z,99771.69
2023-02-27T20:16:30.660Z,99761.44
2023-02-27T20:18:59.255Z,99768.75
2023-02-27T20:21:28.757Z,99763.63
2023-02-27T20:23:59.852Z,99776.19
2023-02-27T20:26:29.833Z,99773.81
2023-02-27T20:29:00.194Z,99771.50
2023-02-27T20:31:29.311Z,99759.03
2023-02-27T20:33:57.859Z,99756.03
2023-02-27T20:36:25.377Z,99752.16
2023-02-27T20:38:53.186Z,99785.56
2023-02-27T20:41:22.638Z,99786.50
2023-02-27T20:43:50.372Z,99795.50
2023-02-27T20:46:20.131Z,99779.16
2023-02-27T20:48:48.682Z,99787.25
2023-02-27T20:51:22.101Z,99777.06
2023-02-27T20:53:51.983Z,99776.25
2023-02-27T20:56:27.637Z,99779.25
2023-02-27T20:58:54.949Z,99786.19
2023-02-27T21:01:22.400Z,99789.88
2023-02-27T21:03:53.976Z,99774.16
2023-02-27T21:06:27.906Z,99787.53
2023-02-27T21:08:56.812Z,99784.41
2023-02-27T21:11:31.383Z,99777.81
2023-02-27T21:14:01.983Z,99774.25
2023-02-27T21:16:28.980Z,99776.25
2023-02-27T21:18:57.104Z,99787.84
2023-02-27T21:21:27.786Z,99775.88
2023-02-27T21:23:55.439Z,99764.56
2023-02-27T21:26:27.826Z,99790.53
2023-02-27T21:28:57.871Z,99794.84
2023-02-27T21:31:26.934Z,99799.25
2023-02-27T21:33:54.781Z,99793.25
2023-02-27T21:36:33.533Z,99789.69
2023-02-27T21:39:03.193Z,99796.63
2023-02-27T21:41:30.888Z,99795.66
2023-02-27T21:44:01.620Z,99797.97
2023-02-27T21:46:29.384Z,99787.09
2023-02-27T21:48:56.852Z,99786.06
2023-02-27T21:51:38.866Z,99789.84
2023-02-27T21:54:07.198Z,99782.00
2023-02-27T21:56:34.197Z,99787.09
2023-02-27T21:59:01.934Z,99777.16
2023-02-27T22:01:30.984Z,99782.19
2023-02-27T22:03:58.330Z,99781.34
2023-02-27T22:06:27.220Z,99784.28
2023-02-27T22:08:58.662Z,99777.59
2023-02-27T22:11:27.782Z,99787.41
2023-02-27T22:13:55.033Z,99783.22
2023-02-27T22:16:22.233Z,99779.97
2023-02-27T22:18:49.890Z,99779.53
2023-02-27T22:21:22.873Z,99785.56
2023-02-27T22:23:50.338Z,99777.06
2023-02-27T22:26:19.687Z,99793.69
2023-02-27T22:28:47.273Z,99789.13
2023-02-27T22:31:22.598Z,99791.31
2023-02-27T22:33:52.388Z,99778.63
2023-02-27T22:36:22.534Z,99774.66
2023-02-27T22:38:50.081Z,99780.16
2023-02-27T22:41:22.258Z,99779.81
2023-02-27T22:43:49.407Z,99790.00
2023-02-27T22:46:23.235Z,99777.06
2023-02-27T22:48:56.615Z,99775.56
2023-02-27T22:51:25.059Z,99775.09
2023-02-27T22:53:55.520Z,99781.47
2023-02-27T22:56:22.697Z,99783.25
2023-02-27T22:58:50.003Z,99781.75
2023-02-27T23:01:22.662Z,99790.41
2023-02-27T23:03:51.600Z,99789.66
2023-02-27T23:06:25.230Z,99800.97
2023-02-27T23:08:52.572Z,99802.34
2023-02-27T23:11:20.151Z,99787.78
2023-02-27T23:13:47.794Z,99793.97
2023-02-27T23:16:15.192Z,99793.56
2023-02-27T23:18:47.497Z,99784.47
2023-02-27T23:21:16.635Z,99782.97
2023-02-27T23:23:44.066Z,99785.38
2023-02-27T23:26:11.696Z,99781.31
2023-02-27T23:28:38.971Z,99777.81
2023-02-27T23:31:07.413Z,99777.25
2023-02-27T23:33:34.767Z,99765.16
2023-02-27T23:36:02.000Z,99771.31
2023-02-27T23:38:29.330Z,99763.03
2023-02-27T23:40:56.871Z,99763.25
2023-02-27T23:43:42.597Z,99773.72
2023-02-27T23:46:12.129Z,99754.53
2023-02-27T23:48:39.467Z,99762.16
2023-02-27T23:51:07.283Z,99771.50
2023-02-27T23:53:37.050Z,99755.06
2023-02-27T23:56:18.600Z,99757.88
2023-02-27T23:58:46.398Z,99746.31
